Chronik & Geschichte

Boeing Stearman am Flugplatz Konstanz

Mit seiner 107-jährigen Geschichte ist Konstanz der älteste Verkehrslandeplatz Deutschlands. Lesen Sie unsere Festschrift zum 100-jährigen Platzjubiläum oder entdecken Sie die ausführliche Flugplatzchronik auf der Website der Initiative PRO Flugplatz Konstanz.

Live am Platz

Die Bilder unserer Webcams werden alle 5 Minuten aktualisiert.

Sonnenaufgang:

06:51 UTC / 07:51 Lokal

Sonnenuntergang:

15:34 UTC / 16:34 Lokal

METAR (03.12.2022 05:50 UTC):

EDNY 030550Z AUTO 04006KT 9999 // OVC009/// 01/M01 Q1016
IFR

TAF (03.12.2022 05:00 UTC):

TAF EDNY 030500Z 0306/0406 04008KT 8000 OVC007 TEMPO 0306/0308 BKN004 BECMG 0310/0312 SCT012 BECMG 0317/0320 BKN008 TEMPO 0400/0406 4000 BR BKN004

Alle Angaben unverbindlich und ohne Gewähr. Zeiten genähert.

Für den Verkehrslandeplatz Konstanz werden keine offiziellen Wetterinformationen ausgegeben. Daher werden zur Orientierung Daten des nahegelegenen Flughafens Friedrichshafen dargestellt.

Das Landeentgelt kann bei uns auch mit aerops bezahlt werden. Die App für's Handy ist kostenfrei erhältlich.